createdAt,value
2023-01-30T00:00:22.985Z,4.57
2023-01-30T00:03:15.781Z,3.75
2023-01-30T00:05:48.537Z,4.20
2023-01-30T00:08:22.101Z,4.00
2023-01-30T00:10:56.615Z,4.85
2023-01-30T00:13:29.538Z,3.05
2023-01-30T00:16:02.159Z,4.15
2023-01-30T00:18:35.092Z,3.95
2023-01-30T00:21:08.848Z,4.18
2023-01-30T00:23:42.171Z,3.38
2023-01-30T00:26:14.921Z,3.50
2023-01-30T00:28:48.659Z,4.55
2023-01-30T00:31:21.214Z,27.55
2023-01-30T00:33:56.333Z,15.63
2023-01-30T00:36:29.425Z,6.22
2023-01-30T00:39:04.664Z,7.20
2023-01-30T00:41:57.019Z,7.60
2023-01-30T00:44:48.649Z,7.20
2023-01-30T00:47:21.943Z,6.00
2023-01-30T00:49:54.987Z,4.50
2023-01-30T00:52:27.681Z,7.22
2023-01-30T00:55:00.524Z,8.90
2023-01-30T00:57:33.096Z,10.07
2023-01-30T01:00:06.457Z,12.90
2023-01-30T01:02:39.053Z,12.10
2023-01-30T01:05:12.648Z,9.40
2023-01-30T01:07:45.132Z,8.77
2023-01-30T01:10:18.285Z,11.45
2023-01-30T01:12:52.717Z,12.93
2023-01-30T01:15:29.348Z,9.80
2023-01-30T01:18:01.889Z,14.35
2023-01-30T01:20:35.288Z,11.40
2023-01-30T01:23:10.550Z,9.55
2023-01-30T01:25:43.482Z,8.45
2023-01-30T01:28:16.249Z,7.18
2023-01-30T01:30:50.690Z,11.30
2023-01-30T01:33:26.990Z,10.60
2023-01-30T01:35:59.928Z,8.85
2023-01-30T01:38:32.606Z,8.70
2023-01-30T01:41:06.624Z,9.02
2023-01-30T01:43:59.309Z,9.15
2023-01-30T01:46:40.562Z,10.32
2023-01-30T01:49:19.669Z,9.50
2023-01-30T01:51:52.553Z,10.25
2023-01-30T01:54:29.143Z,9.90
2023-01-30T01:57:03.875Z,9.25
2023-01-30T01:59:39.930Z,9.60
2023-01-30T02:02:14.887Z,9.00
2023-01-30T02:05:05.694Z,8.90
2023-01-30T02:07:45.058Z,10.52
2023-01-30T02:10:20.232Z,12.45
2023-01-30T02:12:53.227Z,9.70
2023-01-30T02:15:27.499Z,10.90
2023-01-30T02:18:00.975Z,10.77
2023-01-30T02:20:54.197Z,9.82
2023-01-30T02:23:36.108Z,9.70
2023-01-30T02:26:22.300Z,8.05
2023-01-30T02:29:01.486Z,8.18
2023-01-30T02:31:41.361Z,10.73
2023-01-30T02:34:20.601Z,9.43
2023-01-30T02:36:56.096Z,9.80
2023-01-30T02:39:29.011Z,8.25
2023-01-30T02:42:20.514Z,9.98
2023-01-30T02:45:07.319Z,8.63
2023-01-30T02:47:45.576Z,8.80
2023-01-30T02:50:21.322Z,7.47
2023-01-30T02:52:53.973Z,8.80
2023-01-30T02:55:28.737Z,8.15
2023-01-30T02:58:03.476Z,7.40
2023-01-30T03:00:54.591Z,8.88
2023-01-30T03:03:36.667Z,12.32
2023-01-30T03:06:11.231Z,10.95
2023-01-30T03:09:02.469Z,7.00
2023-01-30T03:11:44.938Z,6.55
2023-01-30T03:14:17.539Z,7.85
2023-01-30T03:16:53.058Z,7.35
2023-01-30T03:19:28.645Z,7.32
2023-01-30T03:22:01.606Z,7.47
2023-01-30T03:24:34.270Z,7.40
2023-01-30T03:27:09.263Z,6.32
2023-01-30T03:29:42.575Z,7.18
2023-01-30T03:32:15.467Z,7.90
2023-01-30T03:34:48.452Z,6.15
2023-01-30T03:37:21.424Z,6.78
2023-01-30T03:39:54.400Z,8.80
2023-01-30T03:42:27.619Z,8.63
2023-01-30T03:45:00.278Z,6.05
2023-01-30T03:47:35.826Z,7.68
2023-01-30T03:50:08.999Z,7.85
2023-01-30T03:52:42.087Z,7.15
2023-01-30T03:55:18.013Z,7.18
2023-01-30T03:57:55.112Z,8.18
2023-01-30T04:00:27.796Z,12.35
2023-01-30T04:03:01.096Z,12.63
2023-01-30T04:05:39.186Z,8.23
2023-01-30T04:08:14.305Z,8.70
2023-01-30T04:10:47.386Z,8.85
2023-01-30T04:13:20.389Z,7.22
2023-01-30T04:15:53.044Z,6.10
2023-01-30T04:18:55.316Z,7.53
2023-01-30T04:21:30.608Z,7.38
2023-01-30T04:24:08.355Z,6.15
2023-01-30T04:26:41.563Z,7.57
2023-01-30T04:29:14.647Z,8.25
2023-01-30T04:31:48.503Z,7.97
2023-01-30T04:34:25.692Z,8.95
2023-01-30T04:36:59.293Z,8.27
2023-01-30T04:39:37.047Z,9.00
2023-01-30T04:42:10.810Z,7.45
2023-01-30T04:44:54.466Z,8.05
2023-01-30T04:47:34.649Z,7.70
2023-01-30T04:50:11.217Z,7.32
2023-01-30T04:52:44.025Z,10.32
2023-01-30T04:55:18.293Z,8.05
2023-01-30T04:57:51.529Z,9.65
2023-01-30T05:00:31.490Z,7.15
2023-01-30T05:03:10.087Z,7.88
2023-01-30T05:05:43.355Z,8.80
2023-01-30T05:08:16.499Z,8.02
2023-01-30T05:10:49.660Z,5.88
2023-01-30T05:13:22.290Z,6.35
2023-01-30T05:15:55.317Z,6.28
2023-01-30T05:18:27.824Z,7.72
2023-01-30T05:21:07.994Z,6.38
2023-01-30T05:23:40.965Z,6.20
2023-01-30T05:26:14.329Z,6.43
2023-01-30T05:28:51.503Z,6.68
2023-01-30T05:31:24.623Z,6.43
2023-01-30T05:33:57.211Z,7.03
2023-01-30T05:36:30.097Z,7.93
2023-01-30T05:39:02.646Z,7.13
2023-01-30T05:41:35.530Z,7.43
2023-01-30T05:44:08.155Z,7.05
2023-01-30T05:46:41.198Z,8.05
2023-01-30T05:49:13.710Z,7.28
2023-01-30T05:51:46.761Z,6.00
2023-01-30T05:54:19.315Z,6.25
2023-01-30T05:56:52.263Z,7.18
2023-01-30T05:59:24.859Z,7.38
2023-01-30T06:01:57.711Z,7.63
2023-01-30T06:04:30.271Z,5.65
2023-01-30T06:07:03.323Z,6.68
2023-01-30T06:09:35.861Z,7.32
2023-01-30T06:12:09.267Z,9.82
2023-01-30T06:14:41.827Z,9.95
2023-01-30T06:17:14.848Z,8.90
2023-01-30T06:19:47.557Z,7.03
2023-01-30T06:22:20.522Z,7.50
2023-01-30T06:24:53.076Z,5.90
2023-01-30T06:27:26.029Z,6.05
2023-01-30T06:29:58.588Z,8.82
2023-01-30T06:32:31.624Z,7.07
2023-01-30T06:35:04.353Z,6.75
2023-01-30T06:37:37.184Z,6.15
2023-01-30T06:40:10.183Z,6.68
2023-01-30T06:42:46.878Z,8.40
2023-01-30T06:45:20.174Z,7.20
2023-01-30T06:47:54.490Z,8.32
2023-01-30T06:50:27.957Z,6.20
2023-01-30T06:53:02.770Z,6.95
2023-01-30T06:55:36.096Z,5.18
2023-01-30T06:58:10.178Z,6.90
2023-01-30T07:00:43.153Z,5.22
2023-01-30T07:03:17.585Z,4.57
2023-01-30T07:05:50.532Z,6.55
2023-01-30T07:08:24.444Z,5.15
2023-01-30T07:10:56.999Z,6.28
2023-01-30T07:13:29.786Z,7.50
2023-01-30T07:16:02.367Z,4.80
2023-01-30T07:18:35.204Z,7.05
2023-01-30T07:21:07.834Z,5.93
2023-01-30T07:23:40.717Z,7.00
2023-01-30T07:26:13.216Z,5.10
2023-01-30T07:28:46.337Z,5.00
2023-01-30T07:31:18.991Z,5.43
2023-01-30T07:33:51.890Z,4.78
2023-01-30T07:36:24.406Z,3.90
2023-01-30T07:38:57.291Z,3.55
2023-01-30T07:41:29.892Z,3.90
2023-01-30T07:44:03.176Z,3.03
2023-01-30T07:46:35.942Z,4.75
2023-01-30T07:49:09.781Z,4.32
2023-01-30T07:51:42.238Z,3.80
2023-01-30T07:54:15.287Z,3.47
2023-01-30T07:56:47.854Z,3.78
2023-01-30T07:59:21.064Z,16.02
2023-01-30T08:01:53.856Z,7.30
2023-01-30T08:04:26.973Z,5.75
2023-01-30T08:06:59.552Z,5.85
2023-01-30T08:09:32.522Z,4.25
2023-01-30T08:12:05.196Z,4.60
2023-01-30T08:14:38.075Z,4.28
2023-01-30T08:17:10.811Z,4.03
2023-01-30T08:19:44.368Z,4.70
2023-01-30T08:22:17.110Z,4.93
2023-01-30T08:24:50.152Z,5.50
2023-01-30T08:27:22.677Z,3.65
2023-01-30T08:29:55.642Z,4.43
2023-01-30T08:32:28.189Z,4.00
2023-01-30T08:35:01.040Z,4.68
2023-01-30T08:37:33.688Z,4.18
2023-01-30T08:40:07.392Z,4.88
2023-01-30T08:42:39.951Z,5.28
2023-01-30T08:45:13.011Z,5.63
2023-01-30T08:47:45.545Z,7.43
2023-01-30T08:50:18.957Z,6.53
2023-01-30T08:52:51.645Z,5.07
2023-01-30T08:55:25.211Z,4.55
2023-01-30T08:57:57.874Z,5.05
2023-01-30T09:00:30.775Z,4.75
2023-01-30T09:03:03.530Z,4.53
2023-01-30T09:05:36.582Z,5.13
2023-01-30T09:08:09.113Z,6.43
2023-01-30T09:10:42.168Z,5.32
2023-01-30T09:13:22.725Z,5.43
2023-01-30T09:15:59.514Z,4.30
2023-01-30T09:18:32.050Z,4.63
2023-01-30T09:21:05.745Z,4.05
2023-01-30T09:23:39.312Z,4.70
2023-01-30T09:26:12.321Z,5.07
2023-01-30T09:28:45.165Z,8.35
2023-01-30T09:31:18.233Z,5.50
2023-01-30T09:33:51.071Z,5.97
2023-01-30T09:36:24.001Z,6.20
2023-01-30T09:38:56.602Z,6.10
2023-01-30T09:41:43.044Z,5.38
2023-01-30T09:44:31.405Z,6.25
2023-01-30T09:47:07.316Z,5.18
2023-01-30T09:49:49.046Z,4.93
2023-01-30T09:52:34.704Z,5.47
2023-01-30T09:55:18.631Z,5.82
2023-01-30T09:57:52.153Z,3.90
2023-01-30T10:00:43.526Z,5.07
2023-01-30T10:03:20.516Z,4.57
2023-01-30T10:05:54.782Z,5.18
2023-01-30T10:08:39.707Z,4.22
2023-01-30T10:11:18.989Z,5.93
2023-01-30T10:14:01.054Z,4.43
2023-01-30T10:19:29.894Z,4.10
2023-01-30T10:22:24.239Z,3.72
2023-01-30T10:25:06.253Z,5.40
2023-01-30T10:27:45.145Z,4.75
2023-01-30T10:30:18.375Z,3.72
2023-01-30T10:32:56.219Z,4.43
2023-01-30T10:35:34.883Z,4.10
2023-01-30T10:38:16.418Z,4.03
2023-01-30T10:43:31.997Z,4.65
2023-01-30T10:46:12.592Z,4.03
2023-01-30T10:48:57.311Z,3.40
2023-01-30T10:51:30.780Z,3.33
2023-01-30T10:54:13.775Z,4.57
2023-01-30T10:57:02.310Z,4.10
2023-01-30T10:59:54.852Z,3.42
2023-01-30T11:02:46.583Z,4.00
2023-01-30T11:05:21.730Z,4.50
2023-01-30T11:07:54.560Z,4.28
2023-01-30T11:10:28.349Z,5.85
2023-01-30T11:13:10.934Z,4.57
2023-01-30T11:15:45.226Z,11.65
2023-01-30T11:21:15.895Z,5.43
2023-01-30T11:23:48.991Z,7.03
2023-01-30T11:26:46.446Z,2.53
2023-01-30T11:29:28.173Z,3.65
2023-01-30T11:32:05.096Z,5.68
2023-01-30T11:34:38.804Z,3.85
2023-01-30T11:37:26.064Z,3.40
2023-01-30T11:39:59.214Z,3.55
2023-01-30T11:42:44.077Z,3.15
2023-01-30T11:45:21.419Z,3.42
2023-01-30T11:48:05.406Z,3.58
2023-01-30T11:50:43.853Z,4.40
2023-01-30T11:53:26.544Z,3.63
2023-01-30T11:56:05.704Z,3.55
2023-01-30T11:58:41.174Z,3.33
2023-01-30T12:01:15.280Z,3.13
2023-01-30T12:03:49.496Z,3.95
2023-01-30T12:06:23.872Z,2.88
2023-01-30T12:08:56.410Z,2.65
2023-01-30T12:11:30.805Z,2.80
2023-01-30T12:14:09.229Z,3.08
2023-01-30T12:16:47.067Z,4.07
2023-01-30T12:19:31.867Z,2.70
2023-01-30T12:22:07.998Z,3.30
2023-01-30T12:24:43.295Z,3.20
2023-01-30T12:27:35.135Z,2.30
2023-01-30T12:30:10.598Z,2.38
2023-01-30T12:32:44.632Z,1.80
2023-01-30T12:35:18.331Z,3.60
2023-01-30T12:37:51.344Z,4.20
2023-01-30T12:40:24.276Z,2.58
2023-01-30T12:43:20.939Z,3.55
2023-01-30T12:46:09.916Z,3.53
2023-01-30T12:48:48.276Z,3.63
2023-01-30T12:51:40.071Z,8.48
2023-01-30T12:54:21.788Z,13.63
2023-01-30T12:56:54.249Z,9.65
2023-01-30T12:59:33.475Z,4.65
2023-01-30T13:02:21.102Z,2.42
2023-01-30T13:05:02.088Z,2.28
2023-01-30T13:07:42.912Z,2.63
2023-01-30T13:10:34.663Z,2.30
2023-01-30T13:13:11.049Z,1.58
2023-01-30T13:15:44.041Z,3.03
2023-01-30T13:18:25.726Z,2.95
2023-01-30T13:21:01.550Z,2.25
2023-01-30T13:23:34.510Z,3.17
2023-01-30T13:26:09.619Z,2.22
2023-01-30T13:28:53.341Z,3.75
2023-01-30T13:31:28.494Z,2.28
2023-01-30T13:34:04.215Z,4.18
2023-01-30T13:36:47.583Z,3.50
2023-01-30T13:39:27.831Z,3.42
2023-01-30T13:42:02.284Z,2.65
2023-01-30T13:44:39.365Z,3.67
2023-01-30T13:47:32.454Z,3.13
2023-01-30T13:50:18.659Z,2.80
2023-01-30T13:53:00.673Z,2.58
2023-01-30T13:55:52.739Z,3.83
2023-01-30T13:58:25.658Z,1.98
2023-01-30T14:00:58.465Z,1.45
2023-01-30T14:03:34.709Z,2.03
2023-01-30T14:06:07.330Z,2.50
2023-01-30T14:08:40.320Z,3.95
2023-01-30T14:11:34.000Z,1.48
2023-01-30T14:14:16.217Z,3.25
2023-01-30T14:19:24.840Z,3.83
2023-01-30T14:21:58.112Z,3.40
2023-01-30T14:24:32.665Z,4.20
2023-01-30T14:27:22.132Z,2.28
2023-01-30T14:29:55.872Z,3.67
2023-01-30T14:32:38.822Z,3.40
2023-01-30T14:35:14.400Z,2.47
2023-01-30T14:37:47.732Z,6.15
2023-01-30T14:40:23.955Z,9.93
2023-01-30T14:43:20.959Z,7.03
2023-01-30T14:46:08.601Z,8.85
2023-01-30T14:48:53.536Z,4.68
2023-01-30T14:51:31.670Z,5.18
2023-01-30T14:54:08.124Z,9.02
2023-01-30T14:56:47.107Z,4.07
2023-01-30T14:59:22.592Z,3.60
2023-01-30T15:02:07.753Z,8.90
2023-01-30T15:04:40.349Z,5.63
2023-01-30T15:07:28.799Z,5.25
2023-01-30T15:10:22.466Z,3.67
2023-01-30T15:12:55.301Z,3.97
2023-01-30T15:15:30.643Z,2.95
2023-01-30T15:18:08.379Z,2.58
2023-01-30T15:20:47.046Z,2.70
2023-01-30T15:23:52.533Z,2.45
2023-01-30T15:26:36.382Z,3.72
2023-01-30T15:29:09.386Z,3.53
2023-01-30T15:31:53.602Z,7.13
2023-01-30T15:34:30.049Z,5.63
2023-01-30T15:37:02.543Z,4.32
2023-01-30T15:39:35.428Z,4.05
2023-01-30T15:42:08.413Z,4.45
2023-01-30T15:45:04.106Z,2.97
2023-01-30T15:47:37.289Z,6.65
2023-01-30T15:50:12.311Z,6.95
2023-01-30T15:52:47.469Z,3.53
2023-01-30T15:55:22.928Z,5.00
2023-01-30T15:57:58.090Z,4.60
2023-01-30T16:00:36.579Z,6.68
2023-01-30T16:03:11.855Z,2.50
2023-01-30T16:05:49.363Z,2.25
2023-01-30T16:08:31.871Z,3.35
2023-01-30T16:11:05.004Z,2.45
2023-01-30T16:13:39.878Z,2.90
2023-01-30T16:16:19.611Z,2.40
2023-01-30T16:18:54.730Z,5.50
2023-01-30T16:21:35.516Z,3.45
2023-01-30T16:24:21.575Z,3.25
2023-01-30T16:26:58.171Z,2.65
2023-01-30T16:29:33.855Z,2.45
2023-01-30T16:32:13.183Z,1.63
2023-01-30T16:34:47.604Z,2.95
2023-01-30T16:37:26.563Z,2.28
2023-01-30T16:40:04.263Z,2.45
2023-01-30T16:42:37.604Z,2.50
2023-01-30T16:45:30.013Z,3.05
2023-01-30T16:48:27.477Z,1.83
2023-01-30T16:51:00.292Z,2.60
2023-01-30T16:53:33.714Z,2.97
2023-01-30T16:56:17.284Z,3.15
2023-01-30T16:58:51.863Z,3.70
2023-01-30T17:01:34.027Z,4.47
2023-01-30T17:04:08.597Z,3.08
2023-01-30T17:06:43.286Z,2.55
2023-01-30T17:09:34.564Z,3.35
2023-01-30T17:12:25.533Z,6.33
2023-01-30T17:15:12.068Z,4.57
2023-01-30T17:17:46.266Z,4.53
2023-01-30T17:20:19.297Z,2.17
2023-01-30T17:22:53.610Z,3.42
2023-01-30T17:25:27.024Z,5.65
2023-01-30T17:27:59.889Z,6.30
2023-01-30T17:30:32.796Z,6.93
2023-01-30T17:33:05.340Z,11.32
2023-01-30T17:35:38.586Z,6.82
2023-01-30T17:38:11.813Z,5.18
2023-01-30T17:40:44.829Z,6.03
2023-01-30T17:43:17.347Z,6.47
2023-01-30T17:45:50.305Z,3.92
2023-01-30T17:48:23.263Z,4.55
2023-01-30T17:50:56.197Z,5.95
2023-01-30T17:53:28.791Z,5.93
2023-01-30T17:56:01.726Z,3.65
2023-01-30T17:58:34.279Z,5.43
2023-01-30T18:01:07.126Z,4.90
2023-01-30T18:03:39.680Z,5.18
2023-01-30T18:06:16.239Z,3.78
2023-01-30T18:08:48.756Z,5.05
2023-01-30T18:11:22.654Z,4.90
2023-01-30T18:13:55.881Z,9.52
2023-01-30T18:16:33.372Z,4.95
2023-01-30T18:19:07.468Z,3.53
2023-01-30T18:21:40.642Z,4.70
2023-01-30T18:24:13.862Z,5.30
2023-01-30T18:26:47.236Z,3.78
2023-01-30T18:29:19.803Z,2.55
2023-01-30T18:31:52.950Z,5.47
2023-01-30T18:34:25.525Z,3.95
2023-01-30T18:36:58.641Z,4.35
2023-01-30T18:39:32.410Z,5.20
2023-01-30T18:42:05.582Z,3.47
2023-01-30T18:44:38.331Z,4.90
2023-01-30T18:47:11.150Z,5.28
2023-01-30T18:49:43.886Z,4.05
2023-01-30T18:52:16.812Z,5.45
2023-01-30T18:54:50.595Z,4.88
2023-01-30T18:57:23.558Z,5.90
2023-01-30T18:59:56.123Z,3.78
2023-01-30T19:02:29.074Z,4.03
2023-01-30T19:05:01.699Z,4.15
2023-01-30T19:07:35.652Z,3.95
2023-01-30T19:10:08.495Z,3.17
2023-01-30T19:13:01.239Z,4.18
2023-01-30T19:15:35.354Z,3.78
2023-01-30T19:18:08.544Z,4.57
2023-01-30T19:20:41.203Z,3.38
2023-01-30T19:23:14.116Z,4.50
2023-01-30T19:25:53.091Z,4.72
2023-01-30T19:28:25.964Z,2.88
2023-01-30T19:30:58.757Z,3.72
2023-01-30T19:33:31.751Z,4.75
2023-01-30T19:36:15.510Z,3.33
2023-01-30T19:38:48.970Z,3.80
2023-01-30T19:41:26.424Z,2.75
2023-01-30T19:44:00.107Z,4.72
2023-01-30T19:46:33.050Z,7.15
2023-01-30T19:49:06.061Z,7.63
2023-01-30T19:51:38.573Z,13.63
2023-01-30T19:54:12.361Z,19.90
2023-01-30T19:56:48.589Z,13.73
2023-01-30T19:59:22.607Z,12.70
2023-01-30T20:01:55.082Z,33.22
2023-01-30T20:04:28.642Z,36.00
2023-01-30T20:07:01.149Z,10.30
2023-01-30T20:09:34.278Z,8.93
2023-01-30T20:12:07.183Z,24.75
2023-01-30T20:14:40.027Z,11.20
2023-01-30T20:17:14.540Z,21.38
2023-01-30T20:19:47.611Z,11.95
2023-01-30T20:22:23.845Z,15.75
2023-01-30T20:24:57.461Z,13.93
2023-01-30T20:27:29.986Z,6.93
2023-01-30T20:30:03.584Z,9.77
2023-01-30T20:32:36.953Z,9.75
2023-01-30T20:35:10.016Z,6.30
2023-01-30T20:37:42.496Z,7.28
2023-01-30T20:40:15.727Z,8.35
2023-01-30T20:42:49.118Z,4.25
2023-01-30T20:45:21.935Z,4.70
2023-01-30T20:47:54.535Z,4.95
2023-01-30T20:50:27.931Z,2.95
2023-01-30T20:53:00.426Z,2.55
2023-01-30T20:55:34.227Z,3.30
2023-01-30T20:58:06.835Z,2.83
2023-01-30T21:00:39.962Z,2.97
2023-01-30T21:03:13.821Z,2.20
2023-01-30T21:05:55.708Z,2.22
2023-01-30T21:08:28.432Z,2.15
2023-01-30T21:11:09.102Z,1.95
2023-01-30T21:13:42.032Z,2.78
2023-01-30T21:16:17.815Z,3.00
2023-01-30T21:18:51.631Z,3.47
2023-01-30T21:21:29.998Z,3.80
2023-01-30T21:24:04.942Z,3.13
2023-01-30T21:26:39.382Z,1.65
2023-01-30T21:29:12.946Z,2.50
2023-01-30T21:31:46.461Z,3.10
2023-01-30T21:34:19.328Z,1.67
2023-01-30T21:37:10.571Z,2.40
2023-01-30T21:40:01.407Z,1.50
2023-01-30T21:42:53.105Z,2.20
2023-01-30T21:45:25.603Z,0.97
2023-01-30T21:47:58.581Z,1.95
2023-01-30T21:50:31.348Z,1.88
2023-01-30T21:53:04.210Z,2.20
2023-01-30T21:55:36.756Z,2.13
2023-01-30T21:58:09.634Z,3.15
2023-01-30T22:00:42.184Z,2.28
2023-01-30T22:03:15.498Z,2.45
2023-01-30T22:05:48.067Z,1.50
2023-01-30T22:08:20.930Z,2.35
2023-01-30T22:11:04.206Z,2.35
2023-01-30T22:13:37.845Z,1.42
2023-01-30T22:16:11.838Z,1.65
2023-01-30T22:18:45.695Z,1.60
2023-01-30T22:21:19.861Z,2.20
2023-01-30T22:23:53.313Z,1.17
2023-01-30T22:26:26.394Z,2.28
2023-01-30T22:29:00.121Z,1.35
2023-01-30T22:31:36.561Z,2.08
2023-01-30T22:34:09.843Z,1.40
2023-01-30T22:36:42.331Z,3.10
2023-01-30T22:39:15.235Z,2.67
2023-01-30T22:41:47.775Z,1.80
2023-01-30T22:44:20.635Z,1.80
2023-01-30T22:46:53.307Z,2.05
2023-01-30T22:49:26.589Z,1.90
2023-01-30T22:51:59.268Z,1.42
2023-01-30T22:54:32.159Z,1.92
2023-01-30T22:57:04.629Z,1.45
2023-01-30T22:59:38.153Z,1.77
2023-01-30T23:02:10.864Z,1.50
2023-01-30T23:04:43.763Z,1.42
2023-01-30T23:07:18.070Z,1.15
2023-01-30T23:09:51.030Z,1.45
2023-01-30T23:12:41.778Z,1.08
2023-01-30T23:15:14.677Z,1.38
2023-01-30T23:18:05.773Z,1.20
2023-01-30T23:20:39.057Z,1.67
2023-01-30T23:23:11.606Z,0.95
2023-01-30T23:25:45.026Z,0.95
2023-01-30T23:28:17.639Z,2.75
2023-01-30T23:30:50.559Z,1.25
2023-01-30T23:33:23.167Z,1.15
2023-01-30T23:35:56.623Z,1.45
2023-01-30T23:38:29.161Z,1.85
2023-01-30T23:41:10.222Z,0.88
2023-01-30T23:43:43.667Z,1.88
2023-01-30T23:46:24.020Z,1.52
2023-01-30T23:49:00.910Z,1.30
2023-01-30T23:51:35.487Z,1.17
2023-01-30T23:54:08.497Z,1.73
2023-01-30T23:56:42.697Z,1.33
2023-01-30T23:59:15.301Z,1.40
